Time;durP1;ratioP1;P1;durP2;ratioP2;P2;SDS_P1;SDS_P2;PMS_P1;PMS_P2;Temp;Humidity;BMP_temperature;BMP_pressure;BME280_temperature;BME280_humidity;BME280_pressure;Samples;Min_cycle;Max_cycle;Signal;HPM_P1;HPM_P2
2022/09/21 00:01:59;;;;;;;8.40;4.45;;;14.60;99.90;;;;;;5071174;28;20175;-56
2022/09/21 00:04:24;;;;;;;11.25;4.22;;;14.60;99.90;;;;;;5071059;28;20538;-56
2022/09/21 00:06:50;;;;;;;6.05;4.30;;;14.60;99.90;;;;;;5070893;28;20721;-55
2022/09/21 00:09:15;;;;;;;6.30;4.40;;;14.60;99.90;;;;;;5070989;28;20207;-56
2022/09/21 00:11:41;;;;;;;8.02;5.20;;;14.50;99.90;;;;;;5071038;28;20170;-56
2022/09/21 00:14:11;;;;;;;10.60;5.43;;;14.50;99.90;;;;;;5071101;28;20672;-56
2022/09/21 00:16:37;;;;;;;8.95;5.05;;;14.50;99.90;;;;;;5071438;28;20229;-56
2022/09/21 00:19:03;;;;;;;13.00;5.35;;;14.50;99.90;;;;;;5070933;28;20661;-55
2022/09/21 00:21:29;;;;;;;7.68;5.05;;;14.50;99.90;;;;;;5070041;28;20306;-56
2022/09/21 00:23:55;;;;;;;8.82;4.80;;;14.50;99.90;;;;;;5060698;28;20264;-56
2022/09/21 00:26:24;;;;;;;12.57;5.22;;;14.50;99.90;;;;;;5067840;28;20193;-56
2022/09/21 00:28:57;;;;;;;7.35;5.18;;;14.60;99.90;;;;;;5070929;28;20205;-56
2022/09/21 00:31:23;;;;;;;9.05;4.97;;;14.60;99.90;;;;;;5070882;28;20176;-56
2022/09/21 00:33:49;;;;;;;10.98;5.47;;;14.60;99.90;;;;;;5070721;28;20538;-56
2022/09/21 00:36:17;;;;;;;10.05;5.00;;;14.70;99.90;;;;;;5070896;28;20187;-56
2022/09/21 00:38:44;;;;;;;8.38;5.35;;;14.60;99.90;;;;;;5070826;28;20181;-56
2022/09/21 00:41:11;;;;;;;10.75;5.35;;;14.70;99.90;;;;;;5070585;28;20176;-56
2022/09/21 00:43:42;;;;;;;8.45;5.18;;;14.70;99.90;;;;;;5070744;28;20183;-56
2022/09/21 00:46:18;;;;;;;8.45;4.80;;;14.70;99.90;;;;;;5070529;28;20662;-56
2022/09/21 00:48:44;;;;;;;11.35;5.28;;;14.70;99.90;;;;;;5070663;28;20291;-56
2022/09/21 00:51:10;;;;;;;14.95;4.78;;;14.70;99.90;;;;;;5052960;28;20164;-56
2022/09/21 00:53:37;;;;;;;8.23;4.80;;;14.60;99.90;;;;;;5070695;28;20264;-56
2022/09/21 00:56:05;;;;;;;8.63;5.25;;;14.70;99.90;;;;;;5070617;28;20177;-56
2022/09/21 00:58:37;;;;;;;10.52;5.05;;;14.70;99.90;;;;;;5070401;28;20728;-55
2022/09/21 01:01:03;;;;;;;7.38;4.30;;;14.70;99.90;;;;;;5070445;28;20172;-56
2022/09/21 01:03:30;;;;;;;11.35;5.40;;;14.60;99.90;;;;;;5070305;28;20235;-56
2022/09/21 01:05:56;;;;;;;19.38;5.70;;;14.60;99.90;;;;;;5070333;28;20223;-56
2022/09/21 01:08:25;;;;;;;12.10;5.95;;;14.60;99.90;;;;;;5052060;28;20181;-55
2022/09/21 01:11:08;;;;;;;9.65;5.05;;;14.60;99.90;;;;;;5070283;28;20175;-55
2022/09/21 01:13:54;;;;;;;12.63;5.35;;;14.50;99.90;;;;;;5070410;28;20255;-55
2022/09/21 01:16:52;;;;;;;8.82;5.43;;;14.60;99.90;;;;;;5070303;28;20172;-55
2022/09/21 01:19:34;;;;;;;9.73;5.35;;;14.40;99.90;;;;;;5070167;28;20195;-55
2022/09/21 01:22:11;;;;;;;9.48;5.60;;;14.50;99.90;;;;;;5070285;28;20172;-56
2022/09/21 01:24:39;;;;;;;13.50;5.63;;;14.50;99.90;;;;;;5070221;28;20176;-55
2022/09/21 01:27:36;;;;;;;9.45;5.18;;;14.40;99.90;;;;;;5070219;28;20195;-55
2022/09/21 01:30:06;;;;;;;11.75;5.13;;;14.50;99.90;;;;;;5065225;28;20706;-55
2022/09/21 01:32:44;;;;;;;9.35;5.28;;;14.50;99.90;;;;;;5071547;28;20172;-55
2022/09/21 01:35:36;;;;;;;7.40;4.82;;;14.40;99.90;;;;;;5073848;28;20181;-55
2022/09/21 01:38:18;;;;;;;8.02;4.90;;;13.60;99.90;;;;;;5073879;28;20238;-55
2022/09/21 01:40:49;;;;;;;8.20;4.95;;;14.40;99.90;;;;;;5073795;28;20680;-55
2022/09/21 01:43:24;;;;;;;9.65;4.85;;;14.50;99.90;;;;;;5073768;28;20211;-55
2022/09/21 01:45:51;;;;;;;10.93;4.93;;;14.50;99.90;;;;;;5073722;28;20571;-55
2022/09/21 01:48:21;;;;;;;10.75;4.97;;;14.50;99.90;;;;;;5073611;28;20204;-55
2022/09/21 01:50:51;;;;;;;9.70;4.88;;;14.50;99.90;;;;;;5073644;28;20263;-55
2022/09/21 01:53:34;;;;;;;8.20;5.03;;;14.50;99.90;;;;;;5073890;28;20279;-55
2022/09/21 01:56:06;;;;;;;10.82;5.07;;;14.60;99.90;;;;;;5073556;28;20176;-55
2022/09/21 01:58:40;;;;;;;8.43;4.95;;;14.50;99.90;;;;;;5073519;28;20176;-55
2022/09/21 02:01:09;;;;;;;7.82;5.07;;;14.50;99.90;;;;;;5073514;28;20272;-56
2022/09/21 02:03:42;;;;;;;8.27;4.60;;;14.50;99.90;;;;;;5073353;28;20169;-55
2022/09/21 02:06:08;;;;;;;8.45;5.47;;;14.60;99.90;;;;;;5073133;28;20213;-60
2022/09/21 02:08:36;;;;;;;7.90;5.20;;;14.60;99.90;;;;;;5073143;28;20249;-55
2022/09/21 02:11:04;;;;;;;7.60;5.40;;;14.60;99.90;;;;;;5073182;28;20635;-55
2022/09/21 02:13:36;;;;;;;8.95;4.85;;;14.60;99.90;;;;;;5073097;28;20164;-55
2022/09/21 02:16:11;;;;;;;8.68;4.93;;;14.60;99.90;;;;;;5073034;28;20164;-55
2022/09/21 02:18:56;;;;;;;8.77;4.97;;;14.60;99.90;;;;;;5073142;28;20673;-55
2022/09/21 02:21:56;;;;;;;8.43;4.93;;;14.60;99.90;;;;;;5073224;28;20176;-55
2022/09/21 02:24:44;;;;;;;8.30;5.35;;;14.60;99.90;;;;;;5073058;28;20169;-55
2022/09/21 02:27:09;;;;;;;9.95;5.05;;;14.70;99.90;;;;;;5073050;28;20173;-55
2022/09/21 02:29:44;;;;;;;9.75;5.32;;;14.50;99.90;;;;;;5059096;28;20721;-56
2022/09/21 02:32:19;;;;;;;10.95;5.50;;;14.60;99.90;;;;;;5072836;28;20165;-55
2022/09/21 02:35:08;;;;;;;8.27;4.72;;;14.60;99.90;;;;;;5061136;28;20259;-55
2022/09/21 02:37:50;;;;;;;7.90;5.18;;;14.60;99.90;;;;;;5052915;28;20219;-55
2022/09/21 02:40:29;;;;;;;7.45;5.22;;;14.60;99.90;;;;;;5052779;28;20187;-55
2022/09/21 02:43:02;;;;;;;7.32;4.85;;;14.60;99.90;;;;;;5052504;28;20180;-55
2022/09/21 02:45:41;;;;;;;7.22;5.00;;;14.60;99.90;;;;;;5051705;28;20173;-55
2022/09/21 02:48:11;;;;;;;10.82;5.47;;;14.50;99.90;;;;;;5052627;28;20173;-55
2022/09/21 02:50:43;;;;;;;9.55;5.18;;;14.60;99.90;;;;;;5052558;28;20213;-55
2022/09/21 02:53:10;;;;;;;11.82;5.13;;;14.60;99.90;;;;;;5052616;28;20177;-55
2022/09/21 02:55:37;;;;;;;6.30;4.40;;;14.80;99.90;;;;;;5052742;28;20200;-55
2022/09/21 02:58:06;;;;;;;7.35;4.55;;;14.60;99.90;;;;;;5052505;28;20654;-55
2022/09/21 03:00:34;;;;;;;6.65;4.80;;;14.60;99.90;;;;;;5052463;28;20177;-55
2022/09/21 03:03:15;;;;;;;6.55;4.63;;;14.60;99.90;;;;;;5034571;28;20513;-55
2022/09/21 03:05:42;;;;;;;6.80;4.93;;;14.60;99.90;;;;;;5052002;28;20221;-55
2022/09/21 03:08:08;;;;;;;8.25;4.53;;;14.60;99.90;;;;;;5052190;28;20184;-55
2022/09/21 03:10:38;;;;;;;7.60;4.53;;;14.60;99.90;;;;;;5052164;28;20209;-55
2022/09/21 03:13:04;;;;;;;8.73;5.35;;;14.60;99.90;;;;;;5052301;28;20180;-55
2022/09/21 03:15:30;;;;;;;9.02;5.20;;;13.10;99.90;;;;;;5052126;28;20173;-55
2022/09/21 03:17:55;;;;;;;7.75;5.03;;;14.40;99.90;;;;;;5051900;28;20267;-54
2022/09/21 03:20:21;;;;;;;8.60;4.78;;;14.40;99.90;;;;;;5051902;28;20251;-55
2022/09/21 03:22:47;;;;;;;9.23;4.45;;;14.30;99.90;;;;;;5051892;28;20243;-55
2022/09/21 03:25:12;;;;;;;8.50;4.68;;;14.30;99.90;;;;;;5051857;28;20244;-55
2022/09/21 03:27:40;;;;;;;6.80;4.80;;;14.10;99.90;;;;;;5051824;28;20542;-55
2022/09/21 03:30:05;;;;;;;9.15;5.13;;;14.30;99.90;;;;;;5051672;28;20209;-55
2022/09/21 03:32:31;;;;;;;7.93;4.88;;;14.30;99.90;;;;;;5051713;28;20684;-55
2022/09/21 03:34:57;;;;;;;9.45;4.68;;;14.30;99.90;;;;;;5051555;28;20173;-55
2022/09/21 03:37:22;;;;;;;7.72;4.93;;;14.30;99.90;;;;;;5051876;28;20259;-55
2022/09/21 03:39:48;;;;;;;9.40;5.35;;;14.20;99.90;;;;;;5051953;28;20636;-55
2022/09/21 03:42:14;;;;;;;13.50;4.90;;;14.20;99.90;;;;;;5051485;28;20516;-55
2022/09/21 03:44:40;;;;;;;8.55;5.10;;;14.20;99.90;;;;;;5051501;28;20177;-54
2022/09/21 03:47:06;;;;;;;8.18;5.28;;;14.20;99.90;;;;;;5051434;28;20174;-55
2022/09/21 03:49:33;;;;;;;7.55;5.05;;;14.10;99.90;;;;;;5051139;28;20213;-55
2022/09/21 03:52:00;;;;;;;7.72;4.50;;;14.10;99.90;;;;;;5051516;28;20173;-55
2022/09/21 03:54:25;;;;;;;9.70;5.47;;;14.10;99.90;;;;;;5051531;28;20173;-55
2022/09/21 03:56:51;;;;;;;10.68;5.13;;;14.00;99.90;;;;;;5051207;28;20680;-55
2022/09/21 03:59:17;;;;;;;8.63;4.80;;;14.00;99.90;;;;;;5051274;28;20165;-55
2022/09/21 04:01:43;;;;;;;9.13;4.82;;;14.00;99.90;;;;;;5051130;28;20721;-55
2022/09/21 04:04:09;;;;;;;13.77;5.47;;;13.90;99.90;;;;;;5051182;28;20173;-55
2022/09/21 04:06:35;;;;;;;16.65;5.30;;;13.90;99.90;;;;;;5051052;28;20713;-55
2022/09/21 04:09:01;;;;;;;7.82;4.72;;;13.80;99.90;;;;;;5051018;28;20289;-55
2022/09/21 04:11:27;;;;;;;10.95;5.20;;;13.80;99.90;;;;;;5051234;28;20259;-54
2022/09/21 04:13:55;;;;;;;13.95;5.10;;;13.80;99.90;;;;;;5050848;28;20278;-54
2022/09/21 04:16:25;;;;;;;7.47;4.85;;;13.70;99.90;;;;;;5051076;28;20169;-56
2022/09/21 04:18:51;;;;;;;10.98;5.47;;;13.60;99.90;;;;;;5050890;28;20200;-55
2022/09/21 04:21:17;;;;;;;12.35;5.07;;;13.60;99.90;;;;;;5050895;28;20648;-56
2022/09/21 04:23:44;;;;;;;7.70;5.03;;;13.50;99.90;;;;;;5050890;28;20165;-56
2022/09/21 04:26:33;;;;;;;9.48;5.32;;;13.50;99.90;;;;;;5051099;28;20249;-55
2022/09/21 04:29:00;;;;;;;7.80;5.13;;;13.50;99.90;;;;;;5050677;28;20197;-55
2022/09/21 04:31:26;;;;;;;11.02;5.85;;;13.40;99.90;;;;;;5050832;28;20205;-55
2022/09/21 04:33:54;;;;;;;9.50;5.93;;;13.40;99.90;;;;;;5050328;28;20162;-55
2022/09/21 04:36:21;;;;;;;12.05;5.60;;;13.40;99.90;;;;;;5058610;28;20231;-55
2022/09/21 04:38:47;;;;;;;13.30;5.88;;;13.20;99.90;;;;;;5070597;28;20638;-56
2022/09/21 04:41:14;;;;;;;10.35;6.18;;;13.30;99.90;;;;;;5070411;28;20169;-54
2022/09/21 04:43:48;;;;;;;9.15;5.65;;;13.20;99.90;;;;;;5070478;28;20160;-54
2022/09/21 04:46:19;;;;;;;10.70;5.93;;;13.10;99.90;;;;;;5070512;28;20199;-55
2022/09/21 04:48:45;;;;;;;10.02;6.18;;;13.10;99.90;;;;;;5070462;28;20207;-55
2022/09/21 04:51:12;;;;;;;9.60;5.63;;;13.00;99.90;;;;;;5070475;28;20674;-55
2022/09/21 04:53:40;;;;;;;10.13;6.23;;;13.00;99.90;;;;;;5070430;28;20165;-55
2022/09/21 04:56:07;;;;;;;9.23;6.13;;;12.90;99.90;;;;;;5070249;28;20192;-55
2022/09/21 04:58:33;;;;;;;9.05;5.35;;;12.80;99.90;;;;;;5052507;28;20635;-55
2022/09/21 05:00:59;;;;;;;9.13;5.80;;;12.80;99.90;;;;;;5070465;28;20271;-55
2022/09/21 05:03:25;;;;;;;9.27;5.77;;;12.70;99.90;;;;;;5070392;28;20179;-55
2022/09/21 05:05:53;;;;;;;9.87;5.87;;;12.70;99.90;;;;;;5070173;28;20315;-55
2022/09/21 05:11:05;;;;;;;12.35;6.20;;;12.40;99.90;;;;;;5077364;28;20662;-58
2022/09/21 05:13:31;;;;;;;9.43;6.33;;;12.60;99.90;;;;;;5076984;28;20183;-55
2022/09/21 05:15:56;;;;;;;14.13;6.67;;;12.50;99.90;;;;;;5076988;28;20160;-55
2022/09/21 05:18:22;;;;;;;10.60;6.37;;;12.50;99.90;;;;;;5076858;28;20195;-55
2022/09/21 05:20:55;;;;;;;8.03;5.73;;;12.50;99.90;;;;;;5076882;28;20183;-55
2022/09/21 05:23:25;;;;;;;14.67;6.73;;;12.40;99.90;;;;;;5076850;28;20187;-55
2022/09/21 05:25:51;;;;;;;13.47;7.33;;;12.40;99.90;;;;;;5077064;28;20181;-55
2022/09/21 05:28:18;;;;;;;18.50;6.57;;;12.40;99.90;;;;;;5077070;28;20176;-55
2022/09/21 05:31:06;;;;;;;8.70;6.20;;;12.40;99.90;;;;;;5076860;28;20218;-55
2022/09/21 05:33:34;;;;;;;14.90;6.73;;;12.30;99.90;;;;;;5028340;28;20524;-55
2022/09/21 05:36:38;;;;;;;13.67;6.90;;;12.30;99.90;;;;;;5076841;28;20184;-55
2022/09/21 05:39:04;;;;;;;11.17;6.87;;;12.20;99.90;;;;;;5076684;28;20262;-55
2022/09/21 05:41:30;;;;;;;13.10;7.10;;;11.20;99.90;;;;;;5076715;28;20244;-56
2022/09/21 05:43:56;;;;;;;11.07;7.30;;;12.10;99.90;;;;;;5076577;28;20221;-56
2022/09/21 05:47:00;;;;;;;10.47;6.70;;;12.10;99.90;;;;;;5076708;28;20635;-55
2022/09/21 05:49:45;;;;;;;12.57;6.93;;;12.10;99.90;;;;;;5075974;28;20303;-55
2022/09/21 05:52:38;;;;;;;12.77;6.90;;;12.10;99.90;;;;;;5058550;28;20657;-55
2022/09/21 05:55:24;;;;;;;16.10;6.70;;;12.10;99.90;;;;;;5076867;28;20176;-55
2022/09/21 05:58:30;;;;;;;21.97;6.97;;;12.10;99.90;;;;;;5076549;28;20164;-55
2022/09/21 06:01:20;;;;;;;14.90;7.00;;;12.10;99.90;;;;;;5021837;28;20214;-55
2022/09/21 06:03:48;;;;;;;15.10;7.07;;;12.20;99.90;;;;;;5076546;28;20751;-55
2022/09/21 06:06:19;;;;;;;15.30;6.93;;;12.30;99.90;;;;;;5058888;28;20216;-55
2022/09/21 06:08:45;;;;;;;14.60;6.50;;;12.30;99.90;;;;;;5076297;28;20257;-55
2022/09/21 06:11:11;;;;;;;17.57;6.83;;;12.30;99.90;;;;;;5058329;28;20552;-55
2022/09/21 06:13:37;;;;;;;10.87;7.23;;;12.20;99.90;;;;;;5076582;28;20214;-55
2022/09/21 06:16:03;;;;;;;15.70;7.10;;;12.30;99.90;;;;;;5076153;28;20643;-55
2022/09/21 06:18:29;;;;;;;14.30;6.83;;;12.40;99.90;;;;;;5075334;28;20169;-55
2022/09/21 06:20:55;;;;;;;12.93;7.00;;;12.40;99.90;;;;;;5073180;28;20662;-55
2022/09/21 06:23:21;;;;;;;11.53;7.10;;;12.50;99.90;;;;;;5072962;28;20641;-55
2022/09/21 06:25:53;;;;;;;15.57;7.00;;;12.50;99.90;;;;;;5072947;28;20187;-55
2022/09/21 06:28:19;;;;;;;15.80;7.17;;;12.80;99.90;;;;;;5072986;28;20484;-55
2022/09/21 06:30:53;;;;;;;15.63;7.20;;;12.70;99.90;;;;;;5072715;28;20289;-56
2022/09/21 06:33:22;;;;;;;10.13;6.67;;;12.70;99.90;;;;;;5072829;28;20657;-55
2022/09/21 06:35:53;;;;;;;9.83;6.17;;;12.80;99.90;;;;;;5072619;28;20184;-56
2022/09/21 06:38:19;;;;;;;15.50;7.57;;;12.90;99.90;;;;;;5067078;28;20173;-56
2022/09/21 06:40:45;;;;;;;12.70;7.47;;;12.80;99.90;;;;;;5052753;28;20192;-55
2022/09/21 06:43:10;;;;;;;13.73;6.60;;;12.90;99.90;;;;;;5052638;28;20648;-55
2022/09/21 06:45:36;;;;;;;13.63;6.90;;;12.80;99.90;;;;;;5052570;28;20253;-55
2022/09/21 06:48:02;;;;;;;11.00;6.65;;;12.90;99.90;;;;;;5052574;28;20166;-55
2022/09/21 06:50:28;;;;;;;18.17;7.37;;;13.00;99.90;;;;;;5052471;28;20205;-56
2022/09/21 06:52:53;;;;;;;15.47;8.20;;;13.10;99.90;;;;;;5034651;28;20707;-56
2022/09/21 06:55:19;;;;;;;18.23;8.30;;;13.10;99.90;;;;;;5052399;28;20208;-55
2022/09/21 06:57:45;;;;;;;13.43;7.50;;;13.20;99.90;;;;;;5034452;28;20222;-55
2022/09/21 07:00:12;;;;;;;17.92;7.15;;;13.40;99.90;;;;;;5052447;28;20648;-55
2022/09/21 07:02:42;;;;;;;15.53;6.93;;;13.40;99.90;;;;;;5034343;28;20177;-56
2022/09/21 07:05:07;;;;;;;14.15;6.90;;;13.50;99.90;;;;;;5052220;28;20417;-56
2022/09/21 07:07:35;;;;;;;14.13;7.00;;;13.70;99.90;;;;;;5052778;28;20538;-56
2022/09/21 07:10:01;;;;;;;13.20;6.72;;;13.80;99.90;;;;;;5052214;28;20223;-56
2022/09/21 07:12:28;;;;;;;23.48;7.75;;;14.10;99.90;;;;;;5052269;28;20173;-56
2022/09/21 07:14:54;;;;;;;26.77;7.07;;;14.00;99.90;;;;;;5052143;28;20235;-56
2022/09/21 07:17:20;;;;;;;20.20;7.00;;;14.20;99.90;;;;;;5052044;28;20648;-56
2022/09/21 07:19:46;;;;;;;26.42;7.82;;;14.30;99.90;;;;;;5052128;28;20182;-56
2022/09/21 07:22:12;;;;;;;19.73;7.50;;;14.50;99.90;;;;;;5052035;28;20239;-56
2022/09/21 07:24:37;;;;;;;26.50;8.30;;;14.60;99.90;;;;;;5052010;28;20178;-55
2022/09/21 07:27:03;;;;;;;15.95;7.50;;;14.70;99.90;;;;;;5051926;28;20651;-55
2022/09/21 07:29:29;;;;;;;18.77;8.55;;;14.80;99.90;;;;;;5051688;28;20213;-57
2022/09/21 07:31:55;;;;;;;14.48;7.57;;;14.90;99.90;;;;;;5051831;28;20177;-57
2022/09/21 07:34:20;;;;;;;17.23;7.78;;;15.30;99.90;;;;;;5051600;28;20169;-56
2022/09/21 07:36:46;;;;;;;18.70;7.55;;;15.10;99.90;;;;;;5051780;28;20231;-56
2022/09/21 07:39:12;;;;;;;18.88;8.15;;;15.30;99.90;;;;;;5051829;28;20234;-56
2022/09/21 07:41:37;;;;;;;14.18;7.97;;;15.40;99.90;;;;;;5051680;28;20494;-55
2022/09/21 07:44:03;;;;;;;15.10;8.18;;;15.40;99.90;;;;;;5051352;28;20189;-55
2022/09/21 07:46:29;;;;;;;13.65;8.45;;;15.50;99.90;;;;;;5051669;28;20172;-55
2022/09/21 07:48:56;;;;;;;16.35;8.55;;;15.50;99.90;;;;;;5051251;28;20219;-55
2022/09/21 07:51:22;;;;;;;13.05;7.97;;;15.50;99.90;;;;;;5051333;28;20165;-56
2022/09/21 07:53:55;;;;;;;13.23;8.82;;;15.60;99.90;;;;;;5051378;28;20623;-55
2022/09/21 07:56:22;;;;;;;19.30;9.38;;;15.60;99.90;;;;;;5051418;28;20177;-55
2022/09/21 07:59:05;;;;;;;17.10;9.05;;;15.60;99.90;;;;;;5051403;28;20205;-55
2022/09/21 08:01:36;;;;;;;21.58;10.02;;;15.60;99.90;;;;;;5051251;28;20273;-55
2022/09/21 08:04:04;;;;;;;14.13;8.70;;;15.80;99.90;;;;;;5051060;28;20180;-55
2022/09/21 08:06:31;;;;;;;13.85;9.82;;;15.90;99.90;;;;;;5051049;28;20220;-56
2022/09/21 08:09:02;;;;;;;17.15;9.60;;;16.10;99.90;;;;;;5051097;28;20292;-55
2022/09/21 08:11:29;;;;;;;14.02;9.85;;;16.10;99.90;;;;;;5051142;28;20662;-55
2022/09/21 08:13:58;;;;;;;17.13;10.20;;;16.20;99.90;;;;;;5051010;28;20172;-55
2022/09/21 08:16:24;;;;;;;21.27;9.90;;;16.40;99.90;;;;;;5051112;28;20185;-55
2022/09/21 08:18:50;;;;;;;16.17;9.65;;;16.50;99.90;;;;;;5033235;28;20201;-55
2022/09/21 08:21:16;;;;;;;14.57;8.75;;;16.80;99.90;;;;;;5051082;28;20208;-55
2022/09/21 08:23:42;;;;;;;16.15;9.32;;;17.00;99.90;;;;;;5050865;28;20176;-55
2022/09/21 08:26:18;;;;;;;13.27;9.20;;;17.20;99.90;;;;;;5051001;28;20173;-55
2022/09/21 08:28:48;;;;;;;15.32;9.07;;;17.30;99.90;;;;;;5050641;28;20540;-55
2022/09/21 08:31:16;;;;;;;14.38;9.07;;;17.50;99.90;;;;;;5033236;28;20795;-55
2022/09/21 08:33:42;;;;;;;20.45;9.50;;;17.50;99.90;;;;;;5050768;28;20193;-55
2022/09/21 08:36:08;;;;;;;17.77;9.38;;;17.60;99.90;;;;;;5050708;28;20708;-55
2022/09/21 08:38:35;;;;;;;15.63;9.35;;;17.80;99.90;;;;;;5050808;28;20177;-55
2022/09/21 08:41:16;;;;;;;15.45;9.65;;;18.20;99.90;;;;;;5053780;28;20176;-55
2022/09/21 08:43:45;;;;;;;14.40;8.77;;;18.30;99.90;;;;;;5050095;28;20260;-56
2022/09/21 08:46:16;;;;;;;16.40;9.52;;;18.40;99.90;;;;;;5057822;28;20533;-55
2022/09/21 08:48:55;;;;;;;21.23;8.70;;;18.40;99.90;;;;;;5070287;28;20206;-55
2022/09/21 08:51:24;;;;;;;16.75;9.10;;;18.60;99.90;;;;;;5070221;28;20703;-55
2022/09/21 08:53:54;;;;;;;12.85;8.48;;;18.70;99.90;;;;;;5070407;28;20172;-55
2022/09/21 08:56:22;;;;;;;16.98;9.82;;;18.70;99.90;;;;;;5070489;28;20173;-55
2022/09/21 08:58:48;;;;;;;15.35;8.85;;;18.90;99.90;;;;;;5059063;28;20253;-55
2022/09/21 09:01:29;;;;;;;14.05;8.65;;;18.90;99.90;;;;;;5050061;28;20660;-55
2022/09/21 09:04:18;;;;;;;14.68;7.75;;;19.00;99.90;;;;;;5050225;28;20172;-56
2022/09/21 09:07:20;;;;;;;14.23;8.15;;;19.10;99.90;;;;;;5012830;28;20304;-55
2022/09/21 09:09:45;;;;;;;10.48;7.32;;;19.50;99.90;;;;;;5050200;28;20204;-55
2022/09/21 09:12:23;;;;;;;11.95;6.90;;;19.50;99.90;;;;;;5050194;28;20665;-55
2022/09/21 09:15:10;;;;;;;14.35;6.90;;;19.20;99.90;;;;;;5050436;28;20689;-56
2022/09/21 09:17:57;;;;;;;16.58;6.95;;;19.40;99.90;;;;;;5049991;28;20662;-55
2022/09/21 09:20:46;;;;;;;18.85;6.65;;;19.50;99.90;;;;;;5050157;28;20177;-55
2022/09/21 09:23:21;;;;;;;10.38;5.40;;;19.50;99.90;;;;;;5050126;28;20586;-55
2022/09/21 09:25:51;;;;;;;7.43;5.72;;;19.60;99.90;;;;;;5050163;28;20188;-55
2022/09/21 09:28:35;;;;;;;12.30;5.72;;;19.80;99.90;;;;;;5049952;28;20177;-55
2022/09/21 09:31:16;;;;;;;13.32;5.28;;;19.70;99.90;;;;;;5050041;28;20193;-55
2022/09/21 09:34:15;;;;;;;13.95;6.00;;;19.60;99.90;;;;;;5049921;28;20667;-55
2022/09/21 09:36:45;;;;;;;9.73;5.53;;;19.70;99.90;;;;;;5049569;28;20193;-55
2022/09/21 09:39:13;;;;;;;10.45;4.80;;;19.80;99.90;;;;;;5049969;28;20173;-56
2022/09/21 09:41:39;;;;;;;16.20;5.05;;;19.90;99.90;;;;;;5049957;28;20165;-56
2022/09/21 09:44:11;;;;;;;11.60;5.07;;;19.90;99.90;;;;;;5049914;28;20235;-59
2022/09/21 09:46:58;;;;;;;19.98;4.85;;;20.10;99.90;;;;;;5050067;28;20191;-55
2022/09/21 09:49:47;;;;;;;17.17;5.40;;;20.10;99.90;;;;;;5049850;28;20216;-55
2022/09/21 09:52:15;;;;;;;9.90;5.75;;;20.20;99.90;;;;;;5039362;28;20189;-55
2022/09/21 09:54:41;;;;;;;11.30;6.00;;;20.30;99.90;;;;;;5053114;28;20516;-55
2022/09/21 09:57:08;;;;;;;15.15;5.90;;;20.30;99.90;;;;;;5053396;28;20162;-55
2022/09/21 10:00:03;;;;;;;12.23;5.15;;;20.30;99.90;;;;;;5053725;28;20211;-55
2022/09/21 10:02:28;;;;;;;11.35;5.45;;;20.30;99.90;;;;;;5053459;28;20267;-55
2022/09/21 10:05:00;;;;;;;13.15;4.65;;;20.50;99.90;;;;;;5053274;28;20656;-56
2022/09/21 10:07:44;;;;;;;13.90;5.68;;;20.90;99.90;;;;;;5053396;28;20235;-56
2022/09/21 10:10:22;;;;;;;13.98;4.75;;;21.10;99.90;;;;;;5053281;28;20304;-56
2022/09/21 10:12:49;;;;;;;11.13;4.07;;;21.60;99.90;;;;;;5053367;28;20187;-55
2022/09/21 10:15:22;;;;;;;7.63;3.38;;;21.80;99.90;;;;;;5053344;28;20169;-55
2022/09/21 10:17:55;;;;;;;4.13;3.30;;;22.80;99.90;;;;;;5053466;28;20188;-56
2022/09/21 10:20:21;;;;;;;4.68;3.33;;;24.50;99.90;;;;;;5053399;28;20250;-56
2022/09/21 10:22:54;;;;;;;9.65;3.05;;;25.90;99.90;;;;;;5053013;28;20658;-56
2022/09/21 10:25:20;;;;;;;4.18;2.78;;;26.70;99.90;;;;;;5053169;28;20169;-56
2022/09/21 10:27:49;;;;;;;8.48;3.10;;;27.00;99.90;;;;;;5053032;28;20177;-56
2022/09/21 10:30:30;;;;;;;3.67;2.72;;;25.20;99.90;;;;;;5053024;28;20205;-56
2022/09/21 10:32:58;;;;;;;6.25;2.97;;;25.20;99.90;;;;;;5052936;28;20655;-55
2022/09/21 10:35:24;;;;;;;4.68;2.50;;;25.50;99.90;;;;;;5053226;28;20172;-57
2022/09/21 10:38:15;;;;;;;4.47;2.70;;;24.90;99.90;;;;;;5053041;28;20505;-59
2022/09/21 10:40:43;;;;;;;6.72;2.75;;;25.70;99.90;;;;;;5053026;28;20228;-57
2022/09/21 10:43:25;;;;;;;3.40;2.30;;;25.80;99.90;;;;;;5053096;28;20184;-57
2022/09/21 10:45:55;;;;;;;7.88;1.98;;;25.60;99.90;;;;;;5052886;28;20173;-57
2022/09/21 10:48:23;;;;;;;3.90;2.30;;;25.10;99.90;;;;;;5052877;28;20256;-54
2022/09/21 10:50:51;;;;;;;6.43;2.80;;;25.40;99.90;;;;;;5052627;28;20251;-57
2022/09/21 10:53:29;;;;;;;6.72;2.30;;;24.10;99.90;;;;;;5052664;28;20658;-57
2022/09/21 10:55:57;;;;;;;4.60;2.58;;;23.10;99.90;;;;;;5052778;28;20195;-54
2022/09/21 10:58:23;;;;;;;12.48;2.72;;;22.70;99.90;;;;;;5052568;28;20165;-55
2022/09/21 11:00:51;;;;;;;5.47;2.78;;;22.50;99.90;;;;;;5052366;28;20166;-55
2022/09/21 11:03:29;;;;;;;6.30;2.28;;;23.00;99.90;;;;;;5052389;28;20648;-55
2022/09/21 11:06:07;;;;;;;3.40;2.38;;;24.70;99.90;;;;;;5051371;28;20311;-55
2022/09/21 11:08:40;;;;;;;4.50;2.00;;;26.70;99.90;;;;;;5055333;28;20555;-56
2022/09/21 11:11:10;;;;;;;5.97;2.40;;;28.00;99.90;;;;;;5052422;28;20185;-55
2022/09/21 11:13:55;;;;;;;4.32;1.85;;;28.80;99.90;;;;;;5059322;28;20214;-56
2022/09/21 11:16:32;;;;;;;2.15;1.95;;;29.60;99.90;;;;;;5072261;28;20177;-55
2022/09/21 11:19:00;;;;;;;2.25;1.90;;;29.00;99.90;;;;;;5072246;28;20173;-56
2022/09/21 11:21:37;;;;;;;2.47;1.80;;;29.20;99.90;;;;;;5072057;28;20199;-57
2022/09/21 11:24:42;;;;;;;4.22;2.10;;;28.60;99.90;;;;;;5072334;28;20277;-56
2022/09/21 11:27:23;;;;;;;2.22;1.88;;;29.10;99.90;;;;;;5053526;28;20267;-56
2022/09/21 11:29:51;;;;;;;4.65;1.70;;;29.00;99.90;;;;;;5051872;28;20220;-56
2022/09/21 11:32:36;;;;;;;2.55;1.60;;;27.10;99.90;;;;;;5052152;28;20176;-56
2022/09/21 11:35:32;;;;;;;3.40;1.80;;;25.60;99.90;;;;;;5051931;28;20196;-56
2022/09/21 11:38:12;;;;;;;2.40;1.63;;;25.70;99.90;;;;;;5051882;28;20196;-56
2022/09/21 11:40:50;;;;;;;1.98;1.70;;;25.30;99.90;;;;;;5052150;28;20203;-55
2022/09/21 11:43:43;;;;;;;2.83;1.80;;;26.90;99.90;;;;;;5051723;28;20181;-56
2022/09/21 11:46:32;;;;;;;1.90;1.40;;;27.20;99.90;;;;;;5051711;28;20165;-56
2022/09/21 11:49:26;;;;;;;1.67;1.50;;;28.50;99.90;;;;;;5051419;28;20204;-56
2022/09/21 11:52:24;;;;;;;4.05;1.58;;;28.60;99.90;;;;;;5051515;28;20223;-56
2022/09/21 11:54:59;;;;;;;3.63;1.67;;;29.00;99.90;;;;;;5018935;28;20212;-56
2022/09/21 11:58:05;;;;;;;7.20;1.88;;;28.40;99.90;;;;;;5051682;28;20214;-56
2022/09/21 12:00:56;;;;;;;2.78;1.88;;;27.40;99.90;;;;;;5051355;28;20179;-55
2022/09/21 12:04:02;;;;;;;3.88;1.75;;;25.90;99.90;;;;;;5051426;28;20177;-55
2022/09/21 12:06:46;;;;;;;2.97;1.80;;;24.60;99.90;;;;;;5051303;28;20324;-55
2022/09/21 12:09:14;;;;;;;2.80;2.00;;;23.90;99.90;;;;;;5051290;28;20197;-56
2022/09/21 12:11:53;;;;;;;2.60;1.50;;;23.60;99.90;;;;;;5051100;28;20192;-55
2022/09/21 12:14:24;;;;;;;4.45;1.80;;;23.20;99.90;;;;;;5051041;28;20237;-56
2022/09/21 12:17:05;;;;;;;1.85;1.50;;;23.60;99.90;;;;;;5051181;28;20226;-56
2022/09/21 12:19:49;;;;;;;2.70;1.77;;;23.60;99.90;;;;;;5051072;28;20180;-56
2022/09/21 12:22:30;;;;;;;5.32;1.90;;;24.70;99.90;;;;;;5050876;28;20597;-56
2022/09/21 12:25:09;;;;;;;2.85;1.83;;;26.40;99.90;;;;;;5051017;28;20651;-57
2022/09/21 12:27:57;;;;;;;2.38;1.60;;;28.00;99.90;;;;;;5050994;28;20169;-57
2022/09/21 12:30:23;;;;;;;4.72;2.45;;;27.70;99.90;;;;;;5050736;28;20208;-56
2022/09/21 12:32:57;;;;;;;3.20;1.95;;;28.30;99.90;;;;;;5033002;28;20645;-56
2022/09/21 12:35:33;;;;;;;3.80;2.15;;;28.10;99.90;;;;;;5050979;28;20226;-56
2022/09/21 12:38:25;;;;;;;5.65;2.20;;;26.70;99.90;;;;;;5050806;28;20204;-56
2022/09/21 12:41:15;;;;;;;6.82;2.30;;;25.60;99.90;;;;;;5050594;28;20519;-56
2022/09/21 12:43:49;;;;;;;4.82;2.30;;;25.80;99.90;;;;;;5050685;28;20181;-57
2022/09/21 12:46:24;;;;;;;3.30;2.20;;;25.60;99.90;;;;;;5050776;28;20697;-57
2022/09/21 12:48:49;;;;;;;3.42;1.95;;;25.50;99.90;;;;;;5050547;28;20176;-57
2022/09/21 12:51:31;;;;;;;3.65;2.28;;;24.80;99.90;;;;;;5049199;28;20172;-56
2022/09/21 12:54:05;;;;;;;3.28;1.95;;;24.30;99.90;;;;;;5050667;28;20157;-56
2022/09/21 12:56:31;;;;;;;11.10;2.22;;;;;;;;;;5050731;28;20235;-56
2022/09/21 12:59:21;;;;;;;4.50;1.90;;;24.20;99.90;;;;;;5050581;28;20173;-56
2022/09/21 13:01:56;;;;;;;2.42;2.00;;;25.70;99.90;;;;;;5050363;28;20257;-57
2022/09/21 13:04:42;;;;;;;4.60;2.22;;;24.90;99.90;;;;;;5050256;28;20492;-57
2022/09/21 13:07:31;;;;;;;3.45;2.03;;;25.50;99.90;;;;;;5050500;28;20193;-56
2022/09/21 13:09:59;;;;;;;4.22;2.03;;;25.40;99.90;;;;;;5050298;28;20205;-56
2022/09/21 13:12:33;;;;;;;3.70;2.08;;;24.70;99.90;;;;;;5050417;28;20196;-56
2022/09/21 13:15:13;;;;;;;3.75;2.20;;;24.70;99.90;;;;;;5032697;28;20577;-56